Time;durP1;ratioP1;P1;durP2;ratioP2;P2;SDS_P1;SDS_P2;PMS_P1;PMS_P2;Temp;Humidity;BMP_temperature;BMP_pressure;BME280_temperature;BME280_humidity;BME280_pressure;Samples;Min_cycle;Max_cycle;Signal;HPM_P1;HPM_P2
2023/06/08 00:00:50;;;;;;;10.23;6.35;;;17.80;78.80;;;;;;4832293;29;20053;-90
2023/06/08 00:03:18;;;;;;;12.50;7.20;;;17.80;78.80;;;;;;4846751;29;20041;-90
2023/06/08 00:05:50;;;;;;;11.82;7.10;;;17.80;78.80;;;;;;4846706;29;20080;-90
2023/06/08 00:08:17;;;;;;;10.90;6.72;;;17.70;78.90;;;;;;4846214;29;20098;-90
2023/06/08 00:10:45;;;;;;;10.33;6.53;;;17.70;78.90;;;;;;4845568;29;20073;-90
2023/06/08 00:13:13;;;;;;;15.02;6.60;;;17.70;78.80;;;;;;4845850;29;20080;-89
2023/06/08 00:15:40;;;;;;;12.23;7.40;;;17.70;78.70;;;;;;4830530;29;20053;-89
2023/06/08 00:18:08;;;;;;;11.25;6.43;;;17.70;78.80;;;;;;4830853;29;20094;-89
2023/06/08 00:20:36;;;;;;;10.68;6.68;;;17.70;78.60;;;;;;4845490;29;20469;-90
2023/06/08 00:23:06;;;;;;;10.67;6.50;;;17.60;78.60;;;;;;4845322;29;20508;-89
2023/06/08 00:25:33;;;;;;;10.70;6.65;;;17.50;78.50;;;;;;4845309;29;20077;-89
2023/06/08 00:28:00;;;;;;;10.93;6.70;;;17.50;78.50;;;;;;4830133;29;20049;-89
2023/06/08 00:30:27;;;;;;;11.40;5.68;;;17.50;78.50;;;;;;4845174;29;20088;-89
2023/06/08 00:32:54;;;;;;;10.48;6.20;;;17.50;78.50;;;;;;4845407;29;20049;-89
2023/06/08 00:35:21;;;;;;;9.30;5.70;;;17.50;78.50;;;;;;4845065;29;20140;-89
2023/06/08 00:37:50;;;;;;;11.18;6.75;;;17.50;78.50;;;;;;4845222;29;20073;-89
2023/06/08 00:40:17;;;;;;;10.30;6.55;;;17.40;78.30;;;;;;4846736;29;20049;-89
2023/06/08 00:42:44;;;;;;;11.30;6.10;;;17.50;78.40;;;;;;4848601;29;20052;-89
2023/06/08 00:45:12;;;;;;;11.18;6.65;;;17.30;78.10;;;;;;4848680;29;20080;-89
2023/06/08 00:47:39;;;;;;;11.20;5.90;;;17.30;78.30;;;;;;4833315;29;20374;-89
2023/06/08 00:50:08;;;;;;;10.77;6.07;;;17.20;78.50;;;;;;4833385;29;20046;-89
2023/06/08 00:52:38;;;;;;;9.70;5.93;;;17.20;78.40;;;;;;4848536;29;20156;-90
2023/06/08 00:55:07;;;;;;;9.95;6.78;;;17.20;78.20;;;;;;4848600;29;20057;-89
2023/06/08 00:57:36;;;;;;;9.68;5.72;;;17.20;78.10;;;;;;4833306;29;20415;-89
2023/06/08 01:00:09;;;;;;;12.90;7.07;;;17.20;78.00;;;;;;4833581;29;20496;-89
2023/06/08 01:02:36;;;;;;;9.57;5.68;;;17.20;77.70;;;;;;4833486;29;20133;-90
2023/06/08 01:05:05;;;;;;;11.25;6.30;;;17.20;77.60;;;;;;4833255;29;20049;-89
2023/06/08 01:07:53;;;;;;;11.85;6.78;;;17.20;77.70;;;;;;4849322;29;20512;-89
2023/06/08 01:10:37;;;;;;;11.32;6.60;;;17.00;79.00;;;;;;4849571;29;20057;-89
2023/06/08 01:13:14;;;;;;;11.47;6.07;;;17.00;78.70;;;;;;4849933;29;20062;-89
2023/06/08 01:15:48;;;;;;;18.30;6.63;;;17.00;78.50;;;;;;4849681;29;20235;-89
2023/06/08 01:18:22;;;;;;;9.73;6.22;;;17.00;78.50;;;;;;4850918;29;20050;-89
2023/06/08 01:21:14;;;;;;;10.05;6.07;;;17.00;78.60;;;;;;4835126;29;20045;-89
2023/06/08 01:24:20;;;;;;;11.68;6.60;;;17.00;78.40;;;;;;4814492;29;20416;-89
2023/06/08 01:26:49;;;;;;;10.53;6.30;;;16.90;78.40;;;;;;4743210;30;20055;-89
2023/06/08 01:29:21;;;;;;;9.82;5.82;;;16.90;78.30;;;;;;4758301;30;20052;-89
2023/06/08 01:31:49;;;;;;;11.88;6.18;;;16.90;78.20;;;;;;4792433;29;20080;-89
2023/06/08 01:34:17;;;;;;;9.38;5.20;;;16.90;78.30;;;;;;4848322;29;20055;-89
2023/06/08 01:37:07;;;;;;;10.90;6.35;;;16.90;78.10;;;;;;4833192;29;20057;-89
2023/06/08 01:39:37;;;;;;;16.97;6.13;;;16.90;78.00;;;;;;4833543;29;20110;-89
2023/06/08 01:42:06;;;;;;;11.27;6.13;;;16.70;78.20;;;;;;4833855;29;20054;-89
2023/06/08 01:44:40;;;;;;;10.88;6.90;;;16.70;78.60;;;;;;4849978;29;20060;-89
2023/06/08 01:47:11;;;;;;;11.07;6.53;;;16.70;78.50;;;;;;4850109;29;20538;-89
2023/06/08 01:49:40;;;;;;;12.48;6.75;;;16.70;78.70;;;;;;4849664;29;20045;-89
2023/06/08 01:52:09;;;;;;;13.00;6.10;;;16.60;79.10;;;;;;4832439;29;20068;-89
2023/06/08 01:54:37;;;;;;;10.63;5.82;;;16.60;79.20;;;;;;4849308;29;20057;-90
2023/06/08 01:57:06;;;;;;;11.55;7.05;;;16.70;78.30;;;;;;4834283;29;20041;-90
2023/06/08 01:59:33;;;;;;;10.73;6.30;;;16.70;78.30;;;;;;4848534;29;20058;-89
2023/06/08 02:02:03;;;;;;;10.55;6.13;;;16.70;78.40;;;;;;4848770;29;20095;-89
2023/06/08 02:04:30;;;;;;;10.13;6.10;;;16.60;78.40;;;;;;4849732;29;20141;-89
2023/06/08 02:06:57;;;;;;;10.07;5.53;;;16.60;78.20;;;;;;4833687;29;20050;-89
2023/06/08 02:09:25;;;;;;;11.68;6.75;;;16.60;78.00;;;;;;4848407;29;20489;-89
2023/06/08 02:12:06;;;;;;;11.45;5.88;;;16.70;78.40;;;;;;4833333;29;20057;-89
2023/06/08 02:14:34;;;;;;;10.88;6.38;;;16.70;78.30;;;;;;4848488;29;20077;-89
2023/06/08 02:17:05;;;;;;;9.47;5.73;;;16.70;78.40;;;;;;4832703;29;20085;-89
2023/06/08 02:19:33;;;;;;;11.30;6.72;;;16.80;78.30;;;;;;4847926;29;20140;-89
2023/06/08 02:22:00;;;;;;;12.05;6.70;;;16.80;78.60;;;;;;4832752;29;20500;-89
2023/06/08 02:24:28;;;;;;;10.45;5.95;;;16.80;78.70;;;;;;4833134;29;20042;-89
2023/06/08 02:26:55;;;;;;;10.63;6.07;;;16.80;78.60;;;;;;4832753;29;20145;-89
2023/06/08 02:29:23;;;;;;;10.60;6.23;;;16.80;78.70;;;;;;4848410;29;20050;-89
2023/06/08 02:31:50;;;;;;;13.13;7.13;;;16.80;78.70;;;;;;4848363;29;20045;-90
2023/06/08 02:34:17;;;;;;;10.18;6.55;;;16.80;79.20;;;;;;4833583;29;20106;-89
2023/06/08 02:36:47;;;;;;;10.10;6.60;;;16.70;79.40;;;;;;4832953;29;20077;-88
2023/06/08 02:39:15;;;;;;;13.63;6.53;;;16.70;79.30;;;;;;4846895;29;20073;-89
2023/06/08 02:41:42;;;;;;;11.90;6.20;;;16.70;79.30;;;;;;4846559;29;20053;-89
2023/06/08 02:44:10;;;;;;;12.13;6.50;;;16.70;79.30;;;;;;4846754;29;20065;-89
2023/06/08 02:46:38;;;;;;;10.48;6.05;;;16.80;79.20;;;;;;4846673;29;20482;-89
2023/06/08 02:49:06;;;;;;;10.60;6.22;;;16.80;79.10;;;;;;4846629;29;20395;-89
2023/06/08 02:51:35;;;;;;;11.27;6.30;;;16.80;79.10;;;;;;4831401;29;20082;-89
2023/06/08 02:54:02;;;;;;;12.23;6.83;;;16.80;79.10;;;;;;4846529;29;20057;-89
2023/06/08 02:56:30;;;;;;;13.05;7.60;;;16.80;79.30;;;;;;4846475;29;20096;-89
2023/06/08 02:58:58;;;;;;;12.68;7.65;;;16.80;79.30;;;;;;4831766;29;20054;-89
2023/06/08 03:01:30;;;;;;;14.38;9.55;;;16.80;79.50;;;;;;4846952;29;20050;-89
2023/06/08 03:04:08;;;;;;;18.98;10.75;;;16.80;79.70;;;;;;4846439;29;20053;-89
2023/06/08 03:06:42;;;;;;;17.67;10.10;;;16.70;80.50;;;;;;4832274;29;20072;-89
2023/06/08 03:09:12;;;;;;;14.55;9.65;;;16.80;80.40;;;;;;4846557;29;20046;-90
2023/06/08 03:11:45;;;;;;;16.23;11.02;;;16.80;80.20;;;;;;4846420;29;20136;-89
2023/06/08 03:14:13;;;;;;;16.13;10.10;;;16.90;80.10;;;;;;4831384;29;20113;-89
2023/06/08 03:16:41;;;;;;;15.32;9.27;;;16.90;80.50;;;;;;4831006;29;20050;-89
2023/06/08 03:19:09;;;;;;;16.23;9.73;;;16.90;80.60;;;;;;4831264;29;20057;-89
2023/06/08 03:21:38;;;;;;;14.32;9.48;;;17.00;80.70;;;;;;4845844;29;20412;-90
2023/06/08 03:24:06;;;;;;;13.63;8.98;;;17.00;80.20;;;;;;4846081;29;20045;-89
2023/06/08 03:26:35;;;;;;;16.23;10.10;;;17.10;79.70;;;;;;4831526;29;20045;-89
2023/06/08 03:29:03;;;;;;;16.42;10.05;;;17.20;79.80;;;;;;4831050;29;20397;-89
2023/06/08 03:31:36;;;;;;;14.53;8.93;;;17.20;80.00;;;;;;4831055;29;20045;-89
2023/06/08 03:34:07;;;;;;;16.52;9.75;;;17.30;80.20;;;;;;4846064;29;20110;-89
2023/06/08 03:36:38;;;;;;;14.52;9.50;;;17.20;80.30;;;;;;4845574;29;20136;-89
2023/06/08 03:39:16;;;;;;;14.48;8.65;;;17.30;80.50;;;;;;4845789;29;20076;-89
2023/06/08 03:41:43;;;;;;;16.67;9.55;;;17.30;80.50;;;;;;4847505;29;20106;-89
2023/06/08 03:44:11;;;;;;;15.47;9.80;;;17.40;80.40;;;;;;4832651;29;20050;-89
2023/06/08 03:46:39;;;;;;;16.17;9.32;;;17.40;80.50;;;;;;4851181;29;20052;-89
2023/06/08 03:49:06;;;;;;;14.77;10.02;;;17.50;80.70;;;;;;4849905;29;20050;-88
2023/06/08 03:51:35;;;;;;;17.48;11.02;;;17.40;80.50;;;;;;4834166;29;20060;-88
2023/06/08 03:54:03;;;;;;;18.80;11.00;;;17.50;80.10;;;;;;4846129;29;20054;-89
2023/06/08 03:56:30;;;;;;;19.00;11.00;;;17.50;80.80;;;;;;4862849;29;20062;-89
2023/06/08 03:59:01;;;;;;;18.88;10.02;;;17.40;80.90;;;;;;4862975;29;20056;-89
2023/06/08 04:01:30;;;;;;;18.20;11.10;;;17.40;80.90;;;;;;4862872;29;20495;-88
2023/06/08 04:03:57;;;;;;;14.02;9.57;;;17.50;80.70;;;;;;4862386;29;20477;-88
2023/06/08 04:06:33;;;;;;;17.77;10.90;;;17.50;80.90;;;;;;4861992;29;20098;-89
2023/06/08 04:09:04;;;;;;;18.70;11.83;;;17.50;80.60;;;;;;4863009;29;20049;-88
2023/06/08 04:11:32;;;;;;;20.80;12.98;;;17.60;80.50;;;;;;4846600;29;20049;-87
2023/06/08 04:14:00;;;;;;;21.58;13.05;;;17.60;80.50;;;;;;4861253;29;20050;-89
2023/06/08 04:16:28;;;;;;;17.75;12.02;;;17.60;80.70;;;;;;4861940;29;20072;-89
2023/06/08 04:18:58;;;;;;;22.17;14.15;;;17.60;80.60;;;;;;4861062;29;20105;-89
2023/06/08 04:21:27;;;;;;;20.60;12.70;;;17.70;80.90;;;;;;4861851;29;20079;-88
2023/06/08 04:24:00;;;;;;;19.45;12.43;;;17.60;80.70;;;;;;4861459;29;20049;-89
2023/06/08 04:26:32;;;;;;;20.15;12.10;;;17.50;80.90;;;;;;4862209;29;20501;-88
2023/06/08 04:29:03;;;;;;;18.15;11.23;;;17.40;81.30;;;;;;4862237;29;20080;-89
2023/06/08 04:31:32;;;;;;;18.63;11.27;;;17.40;81.40;;;;;;4863024;29;20045;-89
2023/06/08 04:33:59;;;;;;;17.13;11.70;;;17.50;81.60;;;;;;4847792;29;20052;-89
2023/06/08 04:36:27;;;;;;;18.77;11.60;;;17.60;81.20;;;;;;4862901;29;20122;-89
2023/06/08 04:38:56;;;;;;;20.38;12.00;;;17.70;80.80;;;;;;4862324;29;20105;-89
2023/06/08 04:41:29;;;;;;;18.58;11.40;;;17.80;80.70;;;;;;4862759;29;20515;-89
2023/06/08 04:44:05;;;;;;;23.40;13.40;;;17.90;80.20;;;;;;4862524;29;20070;-89
2023/06/08 04:46:37;;;;;;;28.47;13.83;;;17.80;80.50;;;;;;4862025;29;20073;-89
2023/06/08 04:49:05;;;;;;;26.85;14.02;;;17.60;80.70;;;;;;4863128;29;20049;-89
2023/06/08 04:51:32;;;;;;;29.88;13.85;;;17.60;81.30;;;;;;4847295;29;20053;-89
2023/06/08 04:54:00;;;;;;;28.33;14.60;;;17.70;81.30;;;;;;4864170;29;20053;-89
2023/06/08 04:56:33;;;;;;;26.40;14.88;;;17.60;81.30;;;;;;4833797;29;20102;-89
2023/06/08 04:59:00;;;;;;;24.27;14.83;;;17.60;81.10;;;;;;4865421;29;20141;-89
2023/06/08 05:01:28;;;;;;;31.95;16.88;;;17.60;81.50;;;;;;4849727;29;20049;-89
2023/06/08 05:03:55;;;;;;;26.77;16.00;;;17.60;82.00;;;;;;4864428;29;20042;-89
2023/06/08 05:06:22;;;;;;;31.42;15.15;;;17.60;81.90;;;;;;4848124;29;20056;-89
2023/06/08 05:08:50;;;;;;;24.30;14.30;;;17.70;81.80;;;;;;4863027;29;20054;-89
2023/06/08 05:11:17;;;;;;;26.53;14.57;;;17.70;81.80;;;;;;4863617;29;20076;-90
2023/06/08 05:13:44;;;;;;;24.88;14.88;;;17.80;81.40;;;;;;4863264;29;20148;-89
2023/06/08 05:16:11;;;;;;;48.47;15.80;;;17.70;82.00;;;;;;4863743;29;20060;-90
2023/06/08 05:18:39;;;;;;;26.27;15.55;;;17.60;82.00;;;;;;4864459;29;20114;-90
2023/06/08 05:21:06;;;;;;;48.03;17.38;;;17.50;82.10;;;;;;4863184;29;20086;-90
2023/06/08 05:23:34;;;;;;;43.57;16.50;;;17.50;82.50;;;;;;4862588;29;20041;-90
2023/06/08 05:26:01;;;;;;;42.70;16.67;;;17.50;82.50;;;;;;4848662;29;20508;-90
2023/06/08 05:28:28;;;;;;;39.35;18.55;;;17.50;82.40;;;;;;4863979;29;20057;-89
2023/06/08 05:30:55;;;;;;;39.35;16.60;;;17.50;82.60;;;;;;4863829;29;20152;-89
2023/06/08 13:28:56;;;;;;;9.40;6.97;;;23.80;55.80;;;;;;5110334;27;20449;-89
2023/06/08 13:31:25;;;;;;;9.52;6.15;;;24.70;52.50;;;;;;5109660;28;20072;-89
2023/06/08 13:33:52;;;;;;;9.50;6.28;;;24.60;52.60;;;;;;5092995;28;20134;-89
2023/06/08 13:36:19;;;;;;;9.73;6.93;;;24.70;53.80;;;;;;5085368;28;20050;-89
2023/06/08 13:38:46;;;;;;;11.27;7.13;;;25.00;52.80;;;;;;5092960;28;20065;-90
2023/06/08 13:41:13;;;;;;;11.40;7.20;;;25.30;53.00;;;;;;5117695;28;20141;-91
2023/06/08 13:43:43;;;;;;;12.55;6.28;;;25.50;52.30;;;;;;5092996;28;20408;-92
2023/06/08 13:46:11;;;;;;;11.07;7.30;;;25.60;51.60;;;;;;5127515;28;20067;-92
2023/06/08 13:48:39;;;;;;;9.15;5.95;;;25.50;51.90;;;;;;5099555;28;20032;-92
2023/06/08 13:51:14;;;;;;;11.40;7.32;;;25.30;50.90;;;;;;5094445;28;20112;-96
2023/06/08 13:53:42;;;;;;;10.80;6.90;;;25.30;52.20;;;;;;5093631;28;20378;-93
2023/06/08 13:56:12;;;;;;;10.25;7.18;;;25.10;51.70;;;;;;5126541;28;20050;-93
2023/06/08 13:58:44;;;;;;;70.15;10.55;;;24.80;51.90;;;;;;5093311;28;20046;-94
2023/06/08 14:01:12;;;;;;;12.27;7.30;;;25.00;53.70;;;;;;5093164;28;20493;-95
2023/06/08 14:07:55;;;;;;;10.73;6.03;;;25.30;52.60;;;;;;5100802;28;20155;-92
2023/06/08 14:10:22;;;;;;;12.77;5.78;;;25.20;52.80;;;;;;5106053;28;20069;-90
2023/06/08 14:12:49;;;;;;;8.95;5.20;;;25.50;53.40;;;;;;5092388;28;20031;-94
2023/06/08 14:15:17;;;;;;;8.98;5.68;;;25.60;52.20;;;;;;5109395;28;20428;-90
2023/06/08 14:17:45;;;;;;;9.43;5.90;;;25.30;52.40;;;;;;5101005;28;20101;-90
2023/06/08 14:20:13;;;;;;;11.13;5.57;;;25.20;51.90;;;;;;5109296;28;20040;-90
2023/06/08 14:22:40;;;;;;;10.48;5.63;;;25.10;52.50;;;;;;5109313;28;20051;-90
2023/06/08 14:25:07;;;;;;;10.20;5.38;;;25.20;53.00;;;;;;5092158;28;20450;-90
2023/06/08 14:27:34;;;;;;;9.00;4.78;;;25.20;52.00;;;;;;5092575;28;20420;-91
2023/06/08 14:30:02;;;;;;;8.35;4.68;;;25.10;52.70;;;;;;5094941;28;20068;-90
2023/06/08 14:32:29;;;;;;;10.03;5.50;;;24.90;53.10;;;;;;5095034;28;20105;-91
2023/06/08 14:34:56;;;;;;;9.23;5.95;;;25.00;53.00;;;;;;5107611;28;20502;-89
2023/06/08 14:37:23;;;;;;;10.10;6.30;;;25.10;53.20;;;;;;5107304;28;20536;-89
2023/06/08 14:39:50;;;;;;;9.98;6.20;;;25.10;52.80;;;;;;5094228;28;20078;-88
2023/06/08 14:42:17;;;;;;;10.88;6.10;;;24.80;53.90;;;;;;5078263;28;20043;-89
2023/06/08 14:44:45;;;;;;;10.00;6.10;;;24.80;54.40;;;;;;5104304;28;20076;-90
2023/06/08 14:47:12;;;;;;;10.65;6.20;;;25.00;53.50;;;;;;5077684;28;20481;-88
2023/06/08 14:49:39;;;;;;;8.85;5.28;;;25.00;52.70;;;;;;5106964;27;20400;-88
2023/06/08 14:52:06;;;;;;;10.32;5.65;;;24.90;52.80;;;;;;5111163;28;20054;-88
2023/06/08 14:54:33;;;;;;;11.32;5.93;;;24.70;52.80;;;;;;5091731;28;20074;-88
2023/06/08 14:57:01;;;;;;;13.60;5.83;;;24.40;53.10;;;;;;5094410;28;20044;-88
2023/06/08 14:59:29;;;;;;;10.32;5.55;;;24.20;53.50;;;;;;5092779;28;20048;-88
2023/06/08 15:01:57;;;;;;;9.48;5.07;;;24.40;53.10;;;;;;5079103;28;20522;-88
2023/06/08 15:04:25;;;;;;;10.50;5.70;;;24.40;53.10;;;;;;5072567;28;20504;-88
2023/06/08 15:06:52;;;;;;;11.52;5.65;;;24.60;54.00;;;;;;5078413;28;20040;-89
2023/06/08 15:09:19;;;;;;;9.83;6.10;;;24.90;53.20;;;;;;5077142;28;20048;-91
2023/06/08 15:11:46;;;;;;;12.52;6.10;;;25.10;53.20;;;;;;5068626;28;20036;-91
2023/06/08 15:14:13;;;;;;;11.77;6.45;;;25.20;52.90;;;;;;5094664;28;20040;-90
2023/06/08 15:16:41;;;;;;;10.32;6.00;;;25.10;52.00;;;;;;5077700;28;20036;-90
2023/06/08 15:19:09;;;;;;;11.82;6.28;;;24.90;52.40;;;;;;5094546;28;20040;-90
2023/06/08 15:21:37;;;;;;;10.43;6.00;;;24.70;52.20;;;;;;5077584;28;20488;-90
2023/06/08 15:24:05;;;;;;;12.18;6.65;;;24.60;52.40;;;;;;5077496;28;20044;-90
2023/06/08 15:26:32;;;;;;;11.68;6.28;;;24.60;52.30;;;;;;5076499;28;20059;-89
2023/06/08 15:28:59;;;;;;;11.57;5.88;;;24.40;53.00;;;;;;5110949;28;20066;-90
2023/06/08 15:31:26;;;;;;;10.48;6.20;;;24.30;53.80;;;;;;5111039;28;20408;-90
2023/06/08 15:33:53;;;;;;;10.17;5.43;;;24.30;53.10;;;;;;5077235;28;20094;-90
2023/06/08 15:36:21;;;;;;;11.73;5.93;;;24.20;53.30;;;;;;5094212;28;20036;-90
2023/06/08 15:38:48;;;;;;;11.63;6.32;;;23.90;53.30;;;;;;5077563;28;20044;-90
2023/06/08 15:41:15;;;;;;;10.50;5.68;;;23.70;54.50;;;;;;5076253;28;20043;-90
2023/06/08 15:43:43;;;;;;;10.25;5.97;;;23.60;54.60;;;;;;5108696;28;20044;-90
2023/06/08 15:46:11;;;;;;;10.73;5.93;;;23.60;55.20;;;;;;5093597;28;20044;-90
2023/06/08 15:48:38;;;;;;;11.98;7.10;;;23.60;55.90;;;;;;5093844;28;20044;-91
2023/06/08 15:51:05;;;;;;;11.30;6.80;;;23.60;55.60;;;;;;5069334;28;20045;-90
2023/06/08 15:53:32;;;;;;;11.30;7.00;;;23.60;55.70;;;;;;5076925;28;20089;-91
2023/06/08 15:55:59;;;;;;;11.15;6.68;;;23.60;55.30;;;;;;5075048;28;20036;-90
2023/06/08 15:58:26;;;;;;;10.83;6.77;;;23.40;56.10;;;;;;5089370;28;20048;-90
2023/06/08 16:00:54;;;;;;;15.13;7.18;;;23.30;56.00;;;;;;5091119;28;20044;-90
2023/06/08 16:03:22;;;;;;;11.52;6.93;;;23.30;56.80;;;;;;5077266;28;20105;-90
2023/06/08 16:05:52;;;;;;;11.75;6.88;;;23.30;57.10;;;;;;5076935;28;20404;-90
2023/06/08 16:08:20;;;;;;;11.93;7.00;;;23.30;57.70;;;;;;5093540;28;20131;-90
2023/06/08 16:10:48;;;;;;;14.90;7.67;;;23.30;57.00;;;;;;5110807;28;20043;-91
2023/06/08 16:13:16;;;;;;;13.80;7.75;;;23.10;57.80;;;;;;5075996;28;20105;-90
2023/06/08 16:15:44;;;;;;;13.88;7.65;;;23.10;57.30;;;;;;5090595;28;20036;-90
2023/06/08 16:18:11;;;;;;;13.80;7.68;;;23.00;57.80;;;;;;5093379;28;20492;-91
2023/06/08 16:20:39;;;;;;;13.35;7.47;;;23.00;58.00;;;;;;5076664;28;20040;-90
2023/06/08 16:23:06;;;;;;;12.60;7.73;;;23.00;58.10;;;;;;5093099;28;20052;-90
2023/06/08 16:25:33;;;;;;;12.70;7.75;;;23.00;58.40;;;;;;5093352;28;20044;-90
2023/06/08 16:28:00;;;;;;;11.50;6.40;;;23.00;59.50;;;;;;5076501;28;20132;-91
2023/06/08 16:30:27;;;;;;;14.60;6.35;;;23.00;59.60;;;;;;5073937;28;20156;-90
2023/06/08 16:32:55;;;;;;;11.70;6.15;;;22.90;60.10;;;;;;5073117;28;20039;-91
2023/06/08 16:35:22;;;;;;;28.37;6.70;;;23.00;60.60;;;;;;5075726;28;20576;-90
2023/06/08 16:37:49;;;;;;;11.70;5.22;;;22.90;60.80;;;;;;5092929;28;20062;-91
2023/06/08 16:40:16;;;;;;;8.15;4.18;;;22.80;60.80;;;;;;5109402;28;20040;-90
2023/06/08 16:42:44;;;;;;;7.60;3.47;;;22.60;61.00;;;;;;5076223;28;20046;-90
2023/06/08 16:45:12;;;;;;;7.00;3.47;;;22.60;61.10;;;;;;5092721;28;20043;-90
2023/06/08 16:47:40;;;;;;;7.17;3.10;;;22.50;61.70;;;;;;5075882;28;20042;-90
2023/06/08 16:50:10;;;;;;;9.68;3.75;;;22.40;61.20;;;;;;5109550;28;20067;-90
2023/06/08 16:52:38;;;;;;;6.57;2.97;;;22.40;61.50;;;;;;5092633;28;20044;-91
2023/06/08 16:55:06;;;;;;;5.97;2.72;;;22.30;61.70;;;;;;5126836;27;20507;-91
2023/06/08 16:57:34;;;;;;;7.22;2.40;;;22.20;61.70;;;;;;5075754;28;20036;-90
2023/06/08 17:00:04;;;;;;;7.30;2.90;;;22.10;62.40;;;;;;5075919;28;20050;-91
2023/06/08 17:02:31;;;;;;;6.38;2.60;;;22.00;62.50;;;;;;5075707;28;20050;-91
2023/06/08 17:04:59;;;;;;;7.30;2.22;;;21.90;63.10;;;;;;5081752;28;20040;-91
2023/06/08 17:07:26;;;;;;;5.35;2.08;;;21.90;63.20;;;;;;5075969;28;20055;-90
2023/06/08 17:09:53;;;;;;;6.18;2.13;;;21.90;63.30;;;;;;5075461;28;20055;-90
2023/06/08 17:12:20;;;;;;;5.40;2.20;;;21.90;63.60;;;;;;5109239;28;20047;-91
2023/06/08 17:14:47;;;;;;;5.97;2.40;;;21.80;63.50;;;;;;5075694;28;20396;-90
2023/06/08 17:17:14;;;;;;;7.65;2.90;;;21.70;63.90;;;;;;5092374;28;20068;-90
2023/06/08 17:19:43;;;;;;;8.15;3.50;;;21.70;64.10;;;;;;5083334;28;20036;-91
2023/06/08 17:22:10;;;;;;;9.63;3.65;;;21.60;64.50;;;;;;5092530;28;20126;-91
2023/06/08 17:24:37;;;;;;;7.67;2.70;;;21.50;64.80;;;;;;5075958;28;20071;-91
2023/06/08 17:27:06;;;;;;;9.30;2.72;;;21.50;64.90;;;;;;5092075;28;20069;-90
2023/06/08 17:29:33;;;;;;;6.25;2.58;;;21.40;65.20;;;;;;5092870;28;20032;-91
2023/06/08 17:32:00;;;;;;;5.35;2.22;;;21.40;65.80;;;;;;5090814;28;20040;-91
2023/06/08 17:34:29;;;;;;;5.70;2.60;;;21.30;65.60;;;;;;5092266;28;20524;-90
2023/06/08 17:36:56;;;;;;;5.83;2.23;;;21.30;65.70;;;;;;5092275;28;20036;-90
2023/06/08 17:39:23;;;;;;;6.97;2.83;;;21.20;66.30;;;;;;5069742;28;20044;-90
2023/06/08 17:41:51;;;;;;;6.05;2.67;;;21.20;66.60;;;;;;5086872;28;20045;-90
2023/06/08 17:44:18;;;;;;;6.60;2.63;;;21.10;66.90;;;;;;5091012;28;20051;-90
2023/06/08 17:46:45;;;;;;;10.35;2.78;;;21.10;67.10;;;;;;5089803;28;20524;-90
2023/06/08 17:49:12;;;;;;;6.20;2.67;;;21.10;67.10;;;;;;5090349;28;20058;-90
2023/06/08 17:51:40;;;;;;;7.20;2.88;;;21.10;67.50;;;;;;5090064;28;20130;-90
2023/06/08 17:54:08;;;;;;;7.28;3.10;;;21.10;67.30;;;;;;5074604;28;20070;-90
2023/06/08 17:56:38;;;;;;;5.60;2.42;;;21.10;67.60;;;;;;5091807;28;20039;-90
2023/06/08 17:59:08;;;;;;;6.80;3.00;;;21.10;67.90;;;;;;5071608;28;20130;-90
2023/06/08 18:01:35;;;;;;;6.23;2.77;;;21.10;68.10;;;;;;5075364;28;20505;-90
2023/06/08 18:04:03;;;;;;;7.57;3.10;;;21.10;68.20;;;;;;5077374;28;20382;-92
2023/06/08 18:06:30;;;;;;;7.32;3.38;;;21.10;68.70;;;;;;5079706;28;20401;-93
2023/06/08 18:08:58;;;;;;;6.72;3.33;;;21.10;68.40;;;;;;5096434;28;20497;-92
2023/06/08 18:11:26;;;;;;;7.55;3.88;;;21.10;68.70;;;;;;5079462;28;20098;-91
2023/06/08 18:13:53;;;;;;;8.37;4.27;;;21.10;68.70;;;;;;5097499;28;20044;-92
2023/06/08 18:16:20;;;;;;;9.25;3.33;;;21.10;68.80;;;;;;5096484;28;20036;-92
2023/06/08 18:18:50;;;;;;;7.30;3.33;;;21.00;68.80;;;;;;5096649;28;20040;-90
2023/06/08 18:21:18;;;;;;;8.27;3.08;;;20.90;69.10;;;;;;5080227;28;20497;-91
2023/06/08 18:23:46;;;;;;;7.25;3.05;;;20.90;69.10;;;;;;5080495;28;20040;-90
2023/06/08 18:26:14;;;;;;;6.43;3.00;;;20.80;69.40;;;;;;5077729;28;20047;-90
2023/06/08 18:28:43;;;;;;;7.30;3.00;;;20.90;69.40;;;;;;5079188;28;20036;-90
2023/06/08 18:31:10;;;;;;;6.50;2.80;;;20.90;69.20;;;;;;5079050;28;20033;-90
2023/06/08 18:33:37;;;;;;;8.07;3.20;;;20.90;69.40;;;;;;5112538;27;20036;-90
2023/06/08 18:36:05;;;;;;;6.80;3.17;;;21.00;69.40;;;;;;5078788;28;20041;-92
2023/06/08 18:38:36;;;;;;;8.20;3.13;;;21.00;69.30;;;;;;5076799;28;20070;-92
2023/06/08 18:41:03;;;;;;;6.95;3.00;;;20.90;69.70;;;;;;5078448;28;20040;-92
2023/06/08 18:43:33;;;;;;;6.38;2.85;;;20.80;69.50;;;;;;5078533;28;20043;-91
2023/06/08 18:46:00;;;;;;;6.00;2.80;;;20.80;69.80;;;;;;5078290;28;20035;-91
2023/06/08 18:48:30;;;;;;;8.63;3.20;;;20.80;69.90;;;;;;5078510;28;20070;-92
2023/06/08 18:50:57;;;;;;;6.00;2.77;;;20.80;69.90;;;;;;5109350;28;20049;-91
2023/06/08 18:53:25;;;;;;;6.68;2.85;;;20.80;70.00;;;;;;5094960;28;20040;-92
2023/06/08 18:55:52;;;;;;;6.65;2.85;;;20.70;69.90;;;;;;5078157;28;20485;-92
2023/06/08 18:58:20;;;;;;;22.08;3.85;;;20.60;70.10;;;;;;5094890;28;20121;-92
2023/06/08 19:00:47;;;;;;;6.90;2.75;;;20.60;70.20;;;;;;5078183;28;20106;-92
2023/06/08 19:03:15;;;;;;;8.70;2.93;;;20.60;70.40;;;;;;5078138;28;20497;-92
2023/06/08 19:05:45;;;;;;;6.60;2.55;;;20.60;70.50;;;;;;5094990;28;20443;-90
2023/06/08 19:08:12;;;;;;;5.57;2.53;;;20.50;70.40;;;;;;5075307;28;20511;-92
2023/06/08 19:10:39;;;;;;;8.40;2.58;;;20.50;70.40;;;;;;5077950;28;20142;-91
2023/06/08 19:13:06;;;;;;;7.38;2.70;;;20.50;70.50;;;;;;5077957;28;20547;-91
2023/06/08 19:15:33;;;;;;;8.87;2.50;;;20.40;70.50;;;;;;5076808;28;20060;-92
2023/06/08 19:18:01;;;;;;;6.28;3.03;;;20.40;70.60;;;;;;5085009;28;20044;-92
2023/06/08 19:20:29;;;;;;;6.43;2.90;;;20.30;70.50;;;;;;5076805;28;20052;-91
2023/06/08 19:22:57;;;;;;;7.70;3.17;;;20.30;71.00;;;;;;5094575;28;20051;-91
2023/06/08 19:25:25;;;;;;;6.82;2.67;;;20.30;70.90;;;;;;5077630;28;20089;-91
2023/06/08 19:27:52;;;;;;;8.70;3.13;;;20.20;71.20;;;;;;5108782;28;20133;-92
2023/06/08 19:30:19;;;;;;;8.05;3.35;;;20.10;71.40;;;;;;5094368;28;20044;-92
2023/06/08 19:32:46;;;;;;;9.68;2.90;;;20.10;71.40;;;;;;5078443;28;20232;-92
2023/06/08 19:35:14;;;;;;;7.90;3.03;;;20.10;71.70;;;;;;5093483;28;20048;-91
2023/06/08 19:37:41;;;;;;;9.75;3.28;;;20.10;71.60;;;;;;5093737;28;20044;-90
2023/06/08 19:40:10;;;;;;;6.80;2.90;;;20.10;71.60;;;;;;5094083;28;20032;-89
2023/06/08 19:42:38;;;;;;;8.18;3.47;;;20.00;71.80;;;;;;5094318;28;20036;-89
2023/06/08 19:45:06;;;;;;;7.97;3.20;;;20.00;71.90;;;;;;5094018;28;20040;-89
2023/06/08 19:47:34;;;;;;;6.05;2.88;;;20.00;71.90;;;;;;5077095;28;20032;-90
2023/06/08 19:50:08;;;;;;;5.78;2.90;;;20.00;71.90;;;;;;5077094;28;20036;-90
2023/06/08 19:52:35;;;;;;;7.33;2.97;;;20.00;72.00;;;;;;5092295;28;20036;-90
2023/06/08 19:55:03;;;;;;;7.32;2.80;;;19.90;72.10;;;;;;5076475;28;20040;-91
2023/06/08 19:57:30;;;;;;;7.30;2.90;;;19.90;72.30;;;;;;5092142;28;20074;-92
2023/06/08 19:59:57;;;;;;;11.90;3.83;;;19.80;72.20;;;;;;5109060;28;20044;-93
2023/06/08 20:02:24;;;;;;;6.60;2.75;;;19.80;72.40;;;;;;5094018;28;20050;-92
2023/06/08 20:04:52;;;;;;;7.17;3.23;;;19.80;72.50;;;;;;5077306;28;20405;-93
2023/06/08 20:07:20;;;;;;;6.75;2.78;;;19.80;72.60;;;;;;5077026;28;20101;-92
2023/06/08 20:09:47;;;;;;;8.48;2.67;;;19.80;72.70;;;;;;5093523;28;20059;-92
2023/06/08 20:12:15;;;;;;;5.82;2.67;;;19.80;72.70;;;;;;5076896;28;20512;-92
2023/06/08 20:14:42;;;;;;;6.97;2.90;;;19.80;72.60;;;;;;5093380;28;20078;-92
2023/06/08 20:17:09;;;;;;;6.23;2.50;;;19.70;72.60;;;;;;5110269;28;20039;-92
2023/06/08 20:19:36;;;;;;;6.18;2.65;;;19.60;72.90;;;;;;5076615;28;20044;-91
2023/06/08 20:22:04;;;;;;;6.70;2.70;;;19.60;73.00;;;;;;5076942;28;20730;-92
2023/06/08 20:24:31;;;;;;;6.43;2.63;;;19.60;73.00;;;;;;5073497;28;20076;-92
2023/06/08 20:26:58;;;;;;;5.72;2.50;;;19.50;73.10;;;;;;5075722;28;20063;-91
2023/06/08 20:29:25;;;;;;;7.30;2.50;;;19.50;73.30;;;;;;5093454;28;20032;-91
2023/06/08 20:31:52;;;;;;;7.97;3.03;;;19.50;73.20;;;;;;5076485;28;20085;-91
2023/06/08 20:34:19;;;;;;;7.57;3.10;;;19.50;73.20;;;;;;5076752;28;20497;-91
2023/06/08 20:36:46;;;;;;;7.85;3.25;;;19.40;73.40;;;;;;5075729;28;20063;-90
2023/06/08 20:39:14;;;;;;;6.70;2.78;;;19.40;73.40;;;;;;5071921;28;20467;-92
2023/06/08 20:41:41;;;;;;;6.37;2.87;;;19.30;73.60;;;;;;5076482;28;20132;-92
2023/06/08 20:44:08;;;;;;;6.47;2.90;;;19.30;73.70;;;;;;5076081;28;20040;-92